createdAt,value
2018-05-10T00:00:18.771Z,22.4
2018-05-10T00:01:09.413Z,22.3
2018-05-10T00:01:59.729Z,22.4
2018-05-10T00:02:49.316Z,22.4
2018-05-10T00:03:40.025Z,22.3
2018-05-10T00:04:29.485Z,22.3
2018-05-10T00:05:19.139Z,22.4
2018-05-10T00:06:09.986Z,22.4
2018-05-10T00:06:59.873Z,22.4
2018-05-10T00:07:50.861Z,22.4
2018-05-10T00:08:39.502Z,22.3
2018-05-10T00:09:44.951Z,22.3
2018-05-10T00:10:20.218Z,22.4
2018-05-10T00:11:09.889Z,22.3
2018-05-10T00:12:00.236Z,22.4
2018-05-10T00:12:49.479Z,22.3
2018-05-10T00:13:39.820Z,22.4
2018-05-10T00:14:29.603Z,22.4
2018-05-10T00:15:20.483Z,22.3
2018-05-10T00:16:10.051Z,22.4
2018-05-10T00:17:00.626Z,22.3
2018-05-10T00:17:50.689Z,22.4
2018-05-10T00:18:40.744Z,22.4
2018-05-10T00:19:30.554Z,22.4
2018-05-10T00:20:20.796Z,22.3
2018-05-10T00:21:10.943Z,22.4
2018-05-10T00:22:00.713Z,22.4
2018-05-10T00:22:50.498Z,22.3
2018-05-10T00:23:40.835Z,22.4
2018-05-10T00:24:31.667Z,22.4
2018-05-10T00:25:21.262Z,22.4
2018-05-10T00:26:11.360Z,22.3
2018-05-10T00:27:01.383Z,22.4
2018-05-10T00:27:51.680Z,22.4
2018-05-10T00:28:41.214Z,22.4
2018-05-10T00:29:31.589Z,22.4
2018-05-10T00:30:21.545Z,22.3
2018-05-10T00:31:11.910Z,22.4
2018-05-10T00:32:01.773Z,22.4
2018-05-10T00:32:51.812Z,22.4
2018-05-10T00:33:41.497Z,22.4
2018-05-10T00:34:31.676Z,22.3
2018-05-10T00:35:21.472Z,22.3
2018-05-10T00:36:12.765Z,22.4
2018-05-10T00:37:01.304Z,22.3
2018-05-10T00:37:51.927Z,22.3
2018-05-10T00:38:42.295Z,22.3
2018-05-10T00:39:32.462Z,22.4
2018-05-10T00:40:22.125Z,22.3
2018-05-10T00:41:11.665Z,22.3
2018-05-10T00:42:02.288Z,22.3
2018-05-10T00:43:56.330Z,22.4
2018-05-10T00:44:06.069Z,22.3
2018-05-10T00:44:57.635Z,22.3
2018-05-10T00:45:46.778Z,22.3
2018-05-10T00:46:36.988Z,22.4
2018-05-10T00:47:26.374Z,22.3
2018-05-10T00:49:07.312Z,22.3
2018-05-10T00:49:56.521Z,22.3
2018-05-10T00:50:47.339Z,22.3
2018-05-10T00:51:36.960Z,22.4
2018-05-10T00:52:42.910Z,22.3
2018-05-10T00:53:17.004Z,22.3
2018-05-10T00:54:07.455Z,22.4
2018-05-10T00:54:57.739Z,22.3
2018-05-10T00:55:47.846Z,22.3
2018-05-10T00:56:38.185Z,22.3
2018-05-10T00:57:27.421Z,22.4
2018-05-10T00:58:18.012Z,22.3
2018-05-10T00:59:08.438Z,22.4
2018-05-10T00:59:57.882Z,22.3
2018-05-10T01:00:47.121Z,22.3
2018-05-10T01:01:38.545Z,22.4
2018-05-10T01:02:27.221Z,22.3
2018-05-10T01:03:17.950Z,22.4
2018-05-10T01:04:07.162Z,22.3
2018-05-10T01:04:57.924Z,22.3
2018-05-10T01:05:47.127Z,22.3
2018-05-10T01:06:37.571Z,22.3
2018-05-10T01:07:27.364Z,22.3
2018-05-10T01:08:17.684Z,22.3
2018-05-10T01:09:07.795Z,22.3
2018-05-10T01:09:59.036Z,22.3
2018-05-10T01:10:47.691Z,22.3
2018-05-10T01:11:37.234Z,22.3
2018-05-10T01:12:27.566Z,22.3
2018-05-10T01:13:18.821Z,22.4
2018-05-10T01:14:08.682Z,22.3
2018-05-10T01:14:58.834Z,22.4
2018-05-10T01:15:47.663Z,22.3
2018-05-10T01:16:39.059Z,22.3
2018-05-10T01:17:28.688Z,22.3
2018-05-10T01:18:18.441Z,22.3
2018-05-10T01:19:08.496Z,22.3
2018-05-10T01:20:13.188Z,22.3
2018-05-10T01:20:49.727Z,22.3
2018-05-10T01:21:38.868Z,22.3
2018-05-10T01:22:29.325Z,22.3
2018-05-10T01:23:19.132Z,22.3
2018-05-10T01:24:08.582Z,22.3
2018-05-10T01:24:59.826Z,22.3
2018-05-10T01:25:50.059Z,22.3
2018-05-10T01:26:39.385Z,22.3
2018-05-10T01:27:28.968Z,22.3
2018-05-10T01:28:19.799Z,22.3
2018-05-10T01:29:10.378Z,22.3
2018-05-10T01:29:59.881Z,22.3
2018-05-10T01:30:50.455Z,22.3
2018-05-10T01:31:40.095Z,22.3
2018-05-10T01:32:44.373Z,22.3
2018-05-10T20:21:25.427Z,21.1
2018-05-10T20:23:05.221Z,21.1
2018-05-10T20:23:56.369Z,21.1
2018-05-10T20:25:35.063Z,21.1
2018-05-10T20:26:25.131Z,21.1
2018-05-10T20:27:14.805Z,21.1
2018-05-10T20:29:44.964Z,21.1
2018-05-10T20:30:35.573Z,21.1
2018-05-10T20:31:25.241Z,21.1
2018-05-10T20:33:05.921Z,21.1
2018-05-10T20:36:25.934Z,21.1
2018-05-10T20:38:05.437Z,21.1
2018-05-10T20:38:56.455Z,21.1
2018-05-10T20:39:45.975Z,21.1
2018-05-10T20:41:26.203Z,21.1
2018-05-10T20:42:16.815Z,21.1
2018-05-10T20:45:37.193Z,21.1
2018-05-10T20:46:26.936Z,21.1
2018-05-10T20:56:27.481Z,21.2
2018-05-10T20:59:47.710Z,21.2
2018-05-10T21:00:38.358Z,21.2
2018-05-10T21:03:57.355Z,21.2
2018-05-10T21:04:48.537Z,21.2
2018-05-10T21:05:38.468Z,21.2
2018-05-10T21:08:08.856Z,21.2
2018-05-10T21:08:58.145Z,21.2
2018-05-10T21:09:49.255Z,21.2
2018-05-10T21:10:39.059Z,21.2
2018-05-10T21:11:28.534Z,21.2
2018-05-10T21:12:18.884Z,21.2
2018-05-10T21:13:09.058Z,21.2
2018-05-10T21:13:58.993Z,21.2
2018-05-10T21:14:48.594Z,21.2
2018-05-10T21:15:39.449Z,21.2
2018-05-10T21:16:31.138Z,21.2
2018-05-10T21:17:19.835Z,21.2
2018-05-10T21:18:10.238Z,21.3
2018-05-10T21:19:00.511Z,21.2
2018-05-10T21:19:49.702Z,21.2
2018-05-10T21:20:40.099Z,21.3
2018-05-10T21:21:30.589Z,21.3
2018-05-10T21:22:20.197Z,21.3
2018-05-10T21:23:11.797Z,21.3
2018-05-10T21:24:00.046Z,21.3
2018-05-10T21:24:50.949Z,21.3
2018-05-10T21:25:40.164Z,21.3
2018-05-10T21:26:30.806Z,21.3
2018-05-10T21:27:20.872Z,21.3
2018-05-10T21:28:10.604Z,21.3
2018-05-10T21:29:00.409Z,21.3
2018-05-10T21:29:51.351Z,21.3
2018-05-10T21:30:40.819Z,21.3
2018-05-10T21:31:30.923Z,21.3
2018-05-10T21:32:21.511Z,21.3
2018-05-10T21:33:11.599Z,21.3
2018-05-10T21:34:02.709Z,21.3
2018-05-10T21:34:51.692Z,21.3
2018-05-10T21:35:41.180Z,21.3
2018-05-10T21:36:31.646Z,21.3
2018-05-10T21:37:21.875Z,21.3
2018-05-10T21:38:11.751Z,21.3
2018-05-10T21:39:01.763Z,21.3
2018-05-10T21:39:51.517Z,21.3
2018-05-10T21:40:41.644Z,21.3
2018-05-10T21:41:31.688Z,21.3
2018-05-10T21:42:22.021Z,21.3
2018-05-10T21:43:11.809Z,21.3
2018-05-10T21:44:01.555Z,21.3
2018-05-10T21:44:54.264Z,21.3
2018-05-10T21:45:42.241Z,21.4
2018-05-10T21:46:32.297Z,21.4
2018-05-10T21:47:22.666Z,21.4
2018-05-10T21:48:12.418Z,21.4
2018-05-10T21:49:02.188Z,21.3
2018-05-10T21:49:52.599Z,21.4
2018-05-10T21:50:42.070Z,21.3
2018-05-10T21:51:32.410Z,21.4
2018-05-10T21:52:22.492Z,21.3
2018-05-10T21:53:13.117Z,21.4
2018-05-10T21:54:01.775Z,21.4
2018-05-10T21:54:53.597Z,21.4
2018-05-10T21:55:42.994Z,21.4
2018-05-10T21:56:33.057Z,21.4
2018-05-10T21:57:22.606Z,21.4
2018-05-10T21:58:13.220Z,21.4
2018-05-10T21:59:03.261Z,21.4
2018-05-10T21:59:53.332Z,21.4
2018-05-10T22:00:43.677Z,21.4
2018-05-10T22:01:33.548Z,21.4
2018-05-10T22:02:23.764Z,21.4
2018-05-10T22:03:13.811Z,21.4
2018-05-10T22:04:03.646Z,21.4
2018-05-10T22:04:53.502Z,21.4
2018-05-10T22:05:43.767Z,21.4
2018-05-10T22:06:33.225Z,21.4
2018-05-10T22:07:23.352Z,21.4
2018-05-10T22:08:13.059Z,21.4
2018-05-10T22:09:04.509Z,21.4
2018-05-10T22:09:54.414Z,21.4
2018-05-10T22:10:44.152Z,21.4
2018-05-10T22:11:33.893Z,21.4
2018-05-10T22:12:24.060Z,21.4
2018-05-10T22:13:14.074Z,21.4
2018-05-10T22:14:03.830Z,21.4
2018-05-10T22:14:54.283Z,21.4
2018-05-10T22:15:44.309Z,21.4
2018-05-10T22:16:34.718Z,21.4
2018-05-10T22:17:24.988Z,21.4
2018-05-10T22:18:14.452Z,21.5
2018-05-10T22:19:05.158Z,21.4
2018-05-10T22:19:54.291Z,21.4
2018-05-10T22:20:44.732Z,21.4
2018-05-10T22:21:34.667Z,21.5
2018-05-10T22:22:25.292Z,21.4
2018-05-10T22:23:15.106Z,21.5
2018-05-10T22:24:05.165Z,21.5
2018-05-10T22:24:55.460Z,21.5
2018-05-10T22:25:45.261Z,21.5
2018-05-10T22:26:35.348Z,21.5
2018-05-10T22:27:24.535Z,21.5
2018-05-10T22:28:15.439Z,21.5
2018-05-10T22:29:04.992Z,21.5
2018-05-10T22:29:55.304Z,21.5
2018-05-10T22:30:45.929Z,21.5
2018-05-10T22:31:36.013Z,21.5
2018-05-10T22:32:25.789Z,21.5
2018-05-10T22:33:15.854Z,21.5
2018-05-10T22:34:05.362Z,21.5
2018-05-10T22:34:55.991Z,21.5
2018-05-10T22:35:46.042Z,21.5
2018-05-10T22:36:35.782Z,21.5
2018-05-10T22:37:25.595Z,21.6
2018-05-10T22:38:16.503Z,21.6
2018-05-10T22:39:06.034Z,21.5
2018-05-10T22:39:56.677Z,21.5
2018-05-10T22:40:46.150Z,21.5
2018-05-10T22:41:36.493Z,21.5
2018-05-10T22:42:26.553Z,21.5
2018-05-10T22:43:16.346Z,21.5
2018-05-10T22:44:05.807Z,21.5
2018-05-10T22:44:57.012Z,21.5
2018-05-10T22:45:45.926Z,21.5
2018-05-10T22:46:37.132Z,21.6
2018-05-10T22:47:25.535Z,21.6
2018-05-10T22:48:16.704Z,21.5
2018-05-10T22:49:07.372Z,21.6
2018-05-10T22:49:57.117Z,21.5
2018-05-10T22:50:47.231Z,21.5
2018-05-10T22:51:37.252Z,21.5
2018-05-10T22:52:27.327Z,21.6
2018-05-10T22:53:17.661Z,21.6
2018-05-10T22:54:07.515Z,21.6
2018-05-10T22:54:57.881Z,21.6
2018-05-10T22:55:47.950Z,21.6
2018-05-10T22:56:37.074Z,21.6
2018-05-10T22:57:27.701Z,21.6
2018-05-10T22:58:18.061Z,21.5
2018-05-10T22:59:07.805Z,21.5
2018-05-10T22:59:58.475Z,21.5
2018-05-10T23:00:47.764Z,21.6
2018-05-10T23:01:37.576Z,21.6
2018-05-10T23:02:28.443Z,21.6
2018-05-10T23:03:17.893Z,21.6
2018-05-10T23:04:08.485Z,21.6
2018-05-10T23:04:58.553Z,21.6
2018-05-10T23:05:48.608Z,21.6
2018-05-10T23:06:38.130Z,21.6
2018-05-10T23:07:28.452Z,21.6
2018-05-10T23:08:18.557Z,21.6
2018-05-10T23:09:07.728Z,21.6
2018-05-10T23:09:58.373Z,21.6
2018-05-10T23:10:48.163Z,21.6
2018-05-10T23:11:38.207Z,21.6
2018-05-10T23:12:28.831Z,21.6
2018-05-10T23:13:18.645Z,21.6
2018-05-10T23:14:08.958Z,21.6
2018-05-10T23:14:58.461Z,21.6
2018-05-10T23:15:49.066Z,21.6
2018-05-10T23:16:39.409Z,21.6
2018-05-10T23:17:28.924Z,21.6
2018-05-10T23:18:19.525Z,21.6
2018-05-10T23:19:09.369Z,21.6
2018-05-10T23:19:59.094Z,21.6
2018-05-10T23:20:49.182Z,21.6
2018-05-10T23:21:39.532Z,21.6
2018-05-10T23:22:28.718Z,21.6
2018-05-10T23:23:19.638Z,21.6
2018-05-10T23:24:09.756Z,21.6
2018-05-10T23:24:59.221Z,21.6
2018-05-10T23:25:50.199Z,21.6
2018-05-10T23:26:39.905Z,21.6
2018-05-10T23:27:30.247Z,21.6
2018-05-10T23:28:20.326Z,21.6
2018-05-10T23:29:09.270Z,21.6
2018-05-10T23:29:59.883Z,21.6
2018-05-10T23:30:50.204Z,21.6
2018-05-10T23:31:40.032Z,21.6
2018-05-10T23:32:30.345Z,21.6
2018-05-10T23:33:20.416Z,21.6
2018-05-10T23:34:10.474Z,21.6
2018-05-10T23:35:00.229Z,21.6
2018-05-10T23:35:50.052Z,21.6
2018-05-10T23:36:40.631Z,21.6
2018-05-10T23:37:30.530Z,21.6
2018-05-10T23:38:19.941Z,21.6
2018-05-10T23:39:10.847Z,21.6
2018-05-10T23:40:01.158Z,21.6
2018-05-10T23:40:51.241Z,21.6
2018-05-10T23:41:40.791Z,21.6
2018-05-10T23:42:31.484Z,21.6
2018-05-10T23:43:20.636Z,21.6
2018-05-10T23:44:11.534Z,21.6
2018-05-10T23:45:01.319Z,21.6
2018-05-10T23:45:50.795Z,21.6
2018-05-10T23:46:41.413Z,21.6
2018-05-10T23:47:31.259Z,21.6
2018-05-10T23:48:21.572Z,21.6
2018-05-10T23:49:11.363Z,21.6
2018-05-10T23:50:01.671Z,21.6
2018-05-10T23:50:51.737Z,21.6
2018-05-10T23:51:41.525Z,21.6
2018-05-10T23:52:30.759Z,21.6
2018-05-10T23:53:22.172Z,21.6
2018-05-10T23:54:11.748Z,21.6
2018-05-10T23:55:01.587Z,21.6
2018-05-10T23:55:52.396Z,21.6
2018-05-10T23:56:42.441Z,21.6
2018-05-10T23:57:32.507Z,21.6
2018-05-10T23:58:21.778Z,21.6
2018-05-10T23:59:12.120Z,21.6
